createdAt,value
2019-05-20T00:00:27.902Z,75.38
2019-05-20T00:02:55.147Z,75.53
2019-05-20T00:05:23.736Z,75.03
2019-05-20T00:07:50.957Z,74.82
2019-05-20T00:10:18.208Z,74.49
2019-05-20T00:12:45.454Z,74.92
2019-05-20T00:15:13.187Z,75.34
2019-05-20T00:17:40.447Z,74.44
2019-05-20T00:20:08.665Z,74.17
2019-05-20T00:22:35.951Z,74.10
2019-05-20T00:25:05.171Z,74.31
2019-05-20T00:27:34.114Z,74.82
2019-05-20T00:30:01.329Z,75.01
2019-05-20T00:32:40.600Z,75.63
2019-05-20T00:34:58.279Z,75.99
2019-05-20T00:37:25.569Z,76.11
2019-05-20T00:39:52.878Z,76.43
2019-05-20T00:42:20.129Z,76.92
2019-05-20T00:44:47.392Z,77.22
2019-05-20T00:47:16.520Z,77.86
2019-05-20T00:49:43.790Z,77.22
2019-05-20T00:52:12.317Z,77.02
2019-05-20T00:54:41.157Z,77.33
2019-05-20T00:57:08.677Z,77.58
2019-05-20T00:59:36.894Z,78.02
2019-05-20T01:02:04.188Z,78.39
2019-05-20T01:04:31.492Z,79.31
2019-05-20T01:07:00.901Z,79.38
2019-05-20T01:09:29.603Z,80.39
2019-05-20T01:11:57.055Z,80.71
2019-05-20T01:14:24.294Z,81.04
2019-05-20T01:16:51.591Z,81.55
2019-05-20T01:19:19.388Z,82.12
2019-05-20T01:21:46.609Z,82.63
2019-05-20T01:24:14.921Z,83.04
2019-05-20T01:26:42.339Z,83.27
2019-05-20T01:29:09.547Z,83.58
2019-05-20T01:31:36.820Z,84.16
2019-05-20T01:34:04.205Z,84.37
2019-05-20T01:36:31.374Z,84.72
2019-05-20T01:38:59.037Z,84.99
2019-05-20T01:41:26.388Z,85.42
2019-05-20T01:43:53.631Z,85.69
2019-05-20T01:46:20.830Z,85.86
2019-05-20T01:48:48.095Z,86.00
2019-05-20T01:51:15.499Z,86.35
2019-05-20T01:53:42.740Z,86.71
2019-05-20T01:56:10.440Z,87.06
2019-05-20T01:58:39.762Z,87.47
2019-05-20T02:01:07.134Z,87.69
2019-05-20T02:03:34.475Z,87.76
2019-05-20T02:06:01.716Z,87.89
2019-05-20T02:08:29.612Z,88.01
2019-05-20T02:10:57.032Z,88.25
2019-05-20T02:13:27.499Z,88.36
2019-05-20T02:16:03.425Z,88.52
2019-05-20T02:18:30.631Z,88.76
2019-05-20T02:20:58.511Z,88.93
2019-05-20T02:23:26.137Z,89.17
2019-05-20T02:25:53.387Z,89.46
2019-05-20T02:28:20.789Z,89.77
2019-05-20T02:30:48.104Z,89.86
2019-05-20T02:33:15.317Z,89.83
2019-05-20T02:35:42.430Z,89.83
2019-05-20T02:38:09.720Z,89.83
2019-05-20T02:40:37.392Z,90.02
2019-05-20T02:43:04.635Z,90.23
2019-05-20T02:45:32.581Z,90.38
2019-05-20T02:47:59.857Z,90.32
2019-05-20T02:50:27.151Z,90.22
2019-05-20T02:52:54.766Z,90.10
2019-05-20T02:55:22.032Z,90.02
2019-05-20T02:57:49.238Z,90.05
2019-05-20T03:00:16.627Z,90.03
2019-05-20T03:02:44.128Z,90.07
2019-05-20T03:05:11.588Z,90.14
2019-05-20T03:07:39.257Z,90.24
2019-05-20T03:10:07.009Z,90.40
2019-05-20T03:12:34.250Z,90.54
2019-05-20T03:15:01.647Z,90.68
2019-05-20T03:17:29.371Z,90.58
2019-05-20T03:19:56.584Z,90.35
2019-05-20T03:22:23.787Z,90.14
2019-05-20T03:24:51.381Z,89.99
2019-05-20T03:27:18.589Z,89.96
2019-05-20T03:29:45.876Z,89.94
2019-05-20T03:32:13.108Z,89.98
2019-05-20T03:34:46.780Z,90.03
2019-05-20T03:37:09.931Z,90.10
2019-05-20T03:39:37.258Z,90.24
2019-05-20T03:42:04.781Z,90.27
2019-05-20T03:44:31.951Z,90.40
2019-05-20T03:46:59.433Z,90.42
2019-05-20T03:49:26.712Z,90.24
2019-05-20T03:51:55.783Z,90.08
2019-05-20T03:54:23.037Z,89.95
2019-05-20T03:56:50.864Z,89.76
2019-05-20T03:59:18.413Z,89.60
2019-05-20T04:01:45.909Z,89.41
2019-05-20T04:04:13.703Z,89.13
2019-05-20T04:06:40.941Z,88.89
2019-05-20T04:09:08.275Z,88.66
2019-05-20T04:11:35.569Z,88.41
2019-05-20T04:14:03.017Z,88.06
2019-05-20T04:16:30.281Z,87.62
2019-05-20T04:18:57.598Z,86.88
2019-05-20T04:21:24.909Z,86.17
2019-05-20T04:23:52.231Z,85.44
2019-05-20T04:26:21.726Z,84.57
2019-05-20T04:28:49.262Z,82.33
2019-05-20T04:31:16.610Z,80.59
2019-05-20T04:33:44.016Z,80.22
2019-05-20T04:36:11.585Z,79.34
2019-05-20T04:38:38.882Z,78.21
2019-05-20T04:41:06.403Z,77.95
2019-05-20T04:43:34.048Z,76.42
2019-05-20T04:46:01.813Z,75.69
2019-05-20T04:48:29.526Z,75.45
2019-05-20T04:50:57.330Z,73.18
2019-05-20T04:53:24.548Z,70.94
2019-05-20T04:55:52.114Z,70.44
2019-05-20T04:58:20.058Z,69.80
2019-05-20T05:00:52.333Z,68.61
2019-05-20T05:03:19.813Z,65.54
2019-05-20T05:05:47.915Z,63.81
2019-05-20T05:08:15.980Z,62.04
2019-05-20T05:10:43.324Z,58.21
2019-05-20T05:13:10.641Z,55.38
2019-05-20T05:15:37.940Z,52.27
2019-05-20T05:18:05.178Z,49.55
2019-05-20T05:20:34.197Z,48.78
2019-05-20T05:23:01.822Z,46.98
2019-05-20T05:25:29.171Z,46.07
2019-05-20T05:27:56.726Z,45.03
2019-05-20T05:30:26.697Z,45.18
2019-05-20T05:32:54.308Z,45.00
2019-05-20T05:35:22.580Z,44.80
2019-05-20T05:37:50.248Z,44.67
2019-05-20T05:40:18.371Z,43.25
2019-05-20T05:42:45.757Z,43.06
2019-05-20T05:45:13.324Z,43.31
2019-05-20T05:47:40.461Z,44.36
2019-05-20T05:50:08.322Z,44.83
2019-05-20T05:52:35.934Z,44.92
2019-05-20T05:55:04.325Z,45.01
2019-05-20T05:57:31.594Z,45.24
2019-05-20T05:59:59.373Z,44.29
2019-05-20T06:04:54.416Z,43.30
2019-05-20T06:07:21.726Z,42.16
2019-05-20T06:09:48.932Z,42.69
2019-05-20T06:12:16.590Z,42.44
2019-05-20T06:14:43.872Z,42.11
2019-05-20T06:17:11.069Z,42.59
2019-05-20T06:19:38.842Z,43.25
2019-05-20T06:22:06.652Z,43.19
2019-05-20T06:24:33.895Z,43.15
2019-05-20T06:27:01.256Z,42.99
2019-05-20T06:29:28.503Z,43.75
2019-05-20T06:31:55.956Z,44.93
2019-05-20T06:34:23.276Z,45.47
2019-05-20T06:36:52.684Z,46.82
2019-05-20T06:39:20.366Z,47.88
2019-05-20T06:41:48.012Z,50.11
2019-05-20T06:44:18.231Z,51.02
2019-05-20T06:46:45.549Z,52.25
2019-05-20T06:49:14.193Z,53.60
2019-05-20T06:51:41.414Z,54.92
2019-05-20T06:54:09.045Z,55.81
2019-05-20T06:56:36.602Z,56.04
2019-05-20T06:59:04.120Z,56.03
2019-05-20T07:01:31.510Z,55.23
2019-05-20T07:03:59.018Z,54.35
2019-05-20T07:06:44.083Z,54.26
2019-05-20T07:08:55.447Z,54.19
2019-05-20T07:11:22.734Z,53.52
2019-05-20T07:13:50.046Z,52.54
2019-05-20T07:16:17.409Z,51.61
2019-05-20T07:18:44.648Z,50.82
2019-05-20T07:21:12.027Z,49.66
2019-05-20T07:23:39.245Z,49.71
2019-05-20T07:26:06.498Z,49.21
2019-05-20T07:28:33.896Z,49.06
2019-05-20T07:31:01.132Z,48.09
2019-05-20T07:33:28.407Z,47.17
2019-05-20T07:35:55.618Z,46.28
2019-05-20T07:38:22.921Z,42.50
2019-05-20T07:40:50.218Z,39.71
2019-05-20T07:43:17.566Z,38.03
2019-05-20T07:45:47.112Z,37.95
2019-05-20T07:48:15.801Z,38.27
2019-05-20T07:50:43.314Z,38.69
2019-05-20T07:53:12.442Z,39.05
2019-05-20T07:55:49.107Z,38.92
2019-05-20T07:58:20.272Z,39.21
2019-05-20T08:00:47.594Z,39.69
2019-05-20T08:03:15.139Z,40.57
2019-05-20T08:05:42.285Z,40.45
2019-05-20T08:08:09.571Z,41.47
2019-05-20T08:10:37.102Z,42.81
2019-05-20T08:13:04.787Z,43.08
2019-05-20T08:15:32.182Z,44.13
2019-05-20T08:17:59.430Z,43.58
2019-05-20T08:20:26.692Z,43.23
2019-05-20T08:22:53.945Z,43.12
2019-05-20T08:25:21.263Z,42.46
2019-05-20T08:27:49.408Z,41.28
2019-05-20T08:30:24.498Z,40.28
2019-05-20T08:32:51.818Z,39.18
2019-05-20T08:35:19.097Z,37.16
2019-05-20T08:37:46.492Z,35.07
2019-05-20T08:40:14.140Z,34.82
2019-05-20T08:42:41.432Z,33.78
2019-05-20T08:45:09.188Z,31.24
2019-05-20T08:47:36.732Z,29.31
2019-05-20T08:50:07.367Z,27.85
2019-05-20T08:52:34.508Z,26.47
2019-05-20T08:55:02.362Z,23.91
2019-05-20T08:57:30.309Z,21.31
2019-05-20T09:00:00.863Z,21.30
2019-05-20T09:02:28.482Z,21.06
2019-05-20T09:04:55.696Z,20.36
2019-05-20T09:07:23.041Z,18.01
2019-05-20T09:09:50.371Z,17.46
2019-05-20T09:12:17.641Z,16.83
2019-05-20T09:14:45.002Z,15.77
2019-05-20T09:17:12.169Z,15.43
2019-05-20T09:19:39.873Z,15.14
2019-05-20T09:22:07.363Z,14.56
2019-05-20T09:24:34.751Z,14.26
2019-05-20T09:27:02.139Z,14.19
2019-05-20T09:29:29.771Z,14.05
2019-05-20T09:31:57.238Z,13.35
2019-05-20T09:34:24.909Z,13.28
2019-05-20T09:36:52.156Z,12.88
2019-05-20T09:39:19.397Z,12.10
2019-05-20T09:41:46.700Z,11.94
2019-05-20T09:44:14.021Z,12.16
2019-05-20T09:46:41.333Z,12.65
2019-05-20T09:49:08.573Z,12.38
2019-05-20T09:51:35.864Z,12.39
2019-05-20T09:54:03.868Z,12.07
2019-05-20T09:56:31.398Z,13.00
2019-05-20T09:58:59.358Z,15.29
2019-05-20T10:01:27.012Z,17.80
2019-05-20T10:03:55.085Z,20.04
2019-05-20T10:06:22.464Z,21.96
2019-05-20T10:08:50.813Z,23.58
2019-05-20T10:11:18.482Z,24.99
2019-05-20T10:13:45.753Z,25.36
2019-05-20T10:16:12.991Z,26.66
2019-05-20T10:18:40.311Z,26.28
2019-05-20T10:21:07.863Z,26.57
2019-05-20T10:23:35.127Z,26.68
2019-05-20T10:26:03.106Z,27.28
2019-05-20T10:28:30.429Z,27.12
2019-05-20T10:30:58.121Z,27.23
2019-05-20T10:33:25.682Z,28.92
2019-05-20T10:35:53.385Z,30.52
2019-05-20T10:38:21.337Z,31.25
2019-05-20T10:40:48.761Z,30.76
2019-05-20T10:43:16.809Z,31.37
2019-05-20T10:45:44.270Z,32.73
2019-05-20T10:48:11.527Z,34.89
2019-05-20T10:50:38.737Z,36.84
2019-05-20T10:53:06.280Z,39.53
2019-05-20T10:55:34.160Z,44.52
2019-05-20T10:58:01.346Z,48.06
2019-05-20T11:00:28.647Z,54.31
2019-05-20T11:02:56.169Z,57.38
2019-05-20T11:05:23.474Z,59.35
2019-05-20T11:07:50.868Z,60.37
2019-05-20T11:10:18.614Z,59.54
2019-05-20T11:12:46.041Z,57.53
2019-05-20T11:15:14.075Z,55.45
2019-05-20T11:17:41.201Z,54.90
2019-05-20T11:20:08.919Z,54.45
2019-05-20T11:22:36.825Z,53.56
2019-05-20T11:25:04.149Z,49.34
2019-05-20T11:27:31.473Z,49.08
2019-05-20T11:29:58.913Z,47.30
2019-05-20T11:32:26.540Z,46.62
2019-05-20T11:34:54.147Z,46.02
2019-05-20T11:37:21.699Z,46.64
2019-05-20T11:39:49.224Z,47.70
2019-05-20T11:42:16.869Z,47.94
2019-05-20T11:44:44.141Z,47.86
2019-05-20T11:47:11.371Z,48.34
2019-05-20T11:49:38.851Z,47.75
2019-05-20T11:52:06.166Z,48.16
2019-05-20T11:54:33.594Z,47.84
2019-05-20T11:57:00.808Z,47.33
2019-05-20T11:59:28.060Z,47.13
2019-05-20T12:01:55.521Z,47.67
2019-05-20T12:04:23.789Z,46.47
2019-05-20T12:06:51.116Z,45.74
2019-05-20T12:09:18.425Z,45.50
2019-05-20T12:11:45.739Z,46.21
2019-05-20T12:14:13.044Z,45.57
2019-05-20T12:16:40.348Z,45.33
2019-05-20T12:19:07.607Z,45.46
2019-05-20T12:21:34.878Z,45.61
2019-05-20T12:24:03.057Z,46.25
2019-05-20T12:26:31.068Z,46.03
2019-05-20T12:28:58.954Z,46.98
2019-05-20T12:31:26.212Z,47.21
2019-05-20T12:33:53.542Z,47.55
2019-05-20T12:36:21.947Z,48.55
2019-05-20T12:38:49.187Z,49.17
2019-05-20T12:41:16.517Z,49.79
2019-05-20T12:43:44.988Z,49.95
2019-05-20T12:46:12.902Z,50.17
2019-05-20T12:48:40.537Z,50.00
2019-05-20T12:51:07.938Z,48.96
2019-05-20T12:53:35.625Z,48.62
2019-05-20T12:56:03.665Z,48.14
2019-05-20T12:58:30.945Z,48.59
2019-05-20T13:00:58.229Z,48.35
2019-05-20T13:03:25.841Z,49.00
2019-05-20T13:05:53.038Z,51.04
2019-05-20T13:08:20.399Z,51.83
2019-05-20T13:10:47.784Z,53.10
2019-05-20T13:13:15.091Z,54.10
2019-05-20T13:15:42.672Z,54.51
2019-05-20T13:18:09.819Z,54.29
2019-05-20T13:20:37.276Z,54.39
2019-05-20T13:23:07.074Z,54.06
2019-05-20T13:25:34.228Z,53.58
2019-05-20T13:28:01.865Z,53.91
2019-05-20T13:30:29.462Z,54.25
2019-05-20T13:32:56.742Z,54.86
2019-05-20T13:35:24.663Z,56.46
2019-05-20T13:37:52.870Z,57.76
2019-05-20T13:40:20.675Z,58.30
2019-05-20T13:42:48.287Z,60.75
2019-05-20T13:45:17.890Z,61.22
2019-05-20T13:47:45.373Z,62.38
2019-05-20T13:50:12.875Z,62.65
2019-05-20T13:52:40.200Z,62.49
2019-05-20T13:55:07.795Z,62.52
2019-05-20T13:57:35.205Z,62.44
2019-05-20T14:00:02.836Z,62.33
2019-05-20T14:02:30.314Z,62.03
2019-05-20T14:04:57.678Z,61.87
2019-05-20T14:07:24.971Z,61.97
2019-05-20T14:09:52.916Z,61.27
2019-05-20T14:12:20.754Z,61.03
2019-05-20T14:14:48.018Z,61.09
2019-05-20T14:17:16.397Z,61.45
2019-05-20T14:19:43.816Z,61.09
2019-05-20T14:22:11.237Z,60.57
2019-05-20T14:24:38.889Z,60.60
2019-05-20T14:27:06.181Z,60.23
2019-05-20T14:29:33.650Z,59.52
2019-05-20T14:32:01.482Z,59.52
2019-05-20T14:34:28.829Z,59.04
2019-05-20T14:36:56.732Z,59.06
2019-05-20T14:39:24.020Z,59.29
2019-05-20T14:41:51.759Z,58.45
2019-05-20T14:44:19.434Z,58.68
2019-05-20T14:46:47.033Z,58.96
2019-05-20T14:49:15.019Z,58.58
2019-05-20T14:51:42.444Z,58.24
2019-05-20T14:54:09.746Z,57.64
2019-05-20T14:56:37.050Z,58.82
2019-05-20T14:59:04.436Z,59.33
2019-05-20T15:01:32.418Z,59.84
2019-05-20T15:03:59.629Z,60.50
2019-05-20T15:06:26.901Z,60.77
2019-05-20T15:08:54.205Z,61.29
2019-05-20T15:11:35.665Z,61.36
2019-05-20T15:13:50.746Z,62.03
2019-05-20T15:16:17.997Z,62.94
2019-05-20T15:18:45.249Z,63.88
2019-05-20T15:21:13.179Z,64.62
2019-05-20T15:23:40.591Z,64.43
2019-05-20T15:26:07.997Z,64.83
2019-05-20T15:28:36.062Z,65.32
2019-05-20T15:31:03.762Z,65.53
2019-05-20T15:33:31.004Z,64.34
2019-05-20T15:35:58.611Z,65.04
2019-05-20T15:38:25.875Z,65.49
2019-05-20T15:40:53.100Z,65.34
2019-05-20T15:43:20.431Z,65.33
2019-05-20T15:45:49.154Z,65.31
2019-05-20T15:48:16.834Z,65.35
2019-05-20T15:50:44.046Z,64.85
2019-05-20T15:53:12.805Z,64.78
2019-05-20T15:55:40.714Z,64.38
2019-05-20T15:58:07.964Z,64.04
2019-05-20T16:00:35.321Z,63.88
2019-05-20T16:03:02.867Z,64.29
2019-05-20T16:05:30.066Z,64.85
2019-05-20T16:07:57.404Z,64.91
2019-05-20T16:10:24.647Z,64.92
2019-05-20T16:12:51.970Z,64.59
2019-05-20T16:15:19.316Z,64.86
2019-05-20T16:17:48.501Z,65.22
2019-05-20T16:20:15.836Z,65.16
2019-05-20T16:22:43.392Z,65.57
2019-05-20T16:25:10.831Z,65.52
2019-05-20T16:27:38.096Z,66.15
2019-05-20T16:30:07.357Z,66.59
2019-05-20T16:32:34.992Z,66.28
2019-05-20T16:35:02.925Z,66.22
2019-05-20T16:37:30.630Z,65.59
2019-05-20T16:39:57.944Z,65.26
2019-05-20T16:42:25.439Z,65.40
2019-05-20T16:44:52.707Z,65.51
2019-05-20T16:47:20.380Z,65.86
2019-05-20T16:49:48.512Z,65.52
2019-05-20T16:52:17.854Z,65.28
2019-05-20T16:54:45.425Z,65.19
2019-05-20T16:57:13.735Z,65.43
2019-05-20T16:59:45.307Z,65.25
2019-05-20T17:02:12.691Z,65.09
2019-05-20T17:04:40.256Z,65.01
2019-05-20T17:07:07.877Z,65.02
2019-05-20T17:09:35.151Z,65.06
2019-05-20T17:12:02.861Z,65.16
2019-05-20T17:14:30.233Z,65.20
2019-05-20T17:16:58.067Z,64.84
2019-05-20T17:19:25.290Z,64.85
2019-05-20T17:21:53.068Z,65.04
2019-05-20T17:24:20.596Z,65.14
2019-05-20T17:26:47.862Z,65.45
2019-05-20T17:29:15.400Z,65.45
2019-05-20T17:31:42.839Z,65.75
2019-05-20T17:34:10.884Z,65.68
2019-05-20T17:36:38.127Z,65.81
2019-05-20T17:39:06.122Z,65.92
2019-05-20T17:41:33.567Z,66.34
2019-05-20T17:44:00.865Z,66.52
2019-05-20T17:46:28.269Z,66.78
2019-05-20T17:48:56.008Z,66.79
2019-05-20T17:51:23.582Z,67.01
2019-05-20T17:53:51.143Z,66.28
2019-05-20T17:56:19.286Z,66.90
2019-05-20T17:58:47.126Z,67.52
2019-05-20T18:01:16.104Z,67.93
2019-05-20T18:03:43.590Z,68.40
2019-05-20T18:06:12.976Z,68.86
2019-05-20T18:08:43.782Z,69.09
2019-05-20T18:11:11.025Z,69.26
2019-05-20T18:13:41.584Z,68.92
2019-05-20T18:16:09.171Z,69.14
2019-05-20T18:18:36.417Z,69.67
2019-05-20T18:21:03.674Z,69.30
2019-05-20T18:23:34.964Z,69.84
2019-05-20T18:26:04.727Z,69.72
2019-05-20T18:28:32.085Z,70.12
2019-05-20T18:30:59.355Z,69.77
2019-05-20T18:33:26.803Z,70.11
2019-05-20T18:35:54.056Z,70.26
2019-05-20T18:38:21.646Z,69.17
2019-05-20T18:40:49.495Z,68.64
2019-05-20T18:43:28.858Z,69.53
2019-05-20T18:45:56.217Z,70.36
2019-05-20T18:48:23.449Z,71.04
2019-05-20T18:50:50.937Z,71.12
2019-05-20T18:53:18.576Z,71.65
2019-05-20T18:55:45.772Z,72.11
2019-05-20T18:58:13.058Z,72.22
2019-05-20T19:00:40.655Z,72.16
2019-05-20T19:03:08.252Z,72.13
2019-05-20T19:05:35.458Z,72.66
2019-05-20T19:08:02.981Z,72.63
2019-05-20T19:10:30.159Z,72.90
2019-05-20T19:12:57.489Z,73.57
2019-05-20T19:15:25.382Z,73.45
2019-05-20T19:17:52.510Z,73.87
2019-05-20T19:20:22.851Z,74.42
2019-05-20T19:22:49.190Z,74.69
2019-05-20T19:25:16.857Z,74.95
2019-05-20T19:27:44.122Z,74.91
2019-05-20T19:30:13.950Z,74.49
2019-05-20T19:32:41.202Z,75.03
2019-05-20T19:35:08.429Z,75.08
2019-05-20T19:37:35.779Z,75.09
2019-05-20T19:40:03.735Z,75.37
2019-05-20T19:42:31.197Z,75.98
2019-05-20T19:44:58.509Z,75.39
2019-05-20T19:47:26.098Z,75.75
2019-05-20T19:49:54.953Z,75.70
2019-05-20T19:52:22.242Z,76.07
2019-05-20T19:54:49.634Z,75.94
2019-05-20T19:57:17.378Z,75.73
2019-05-20T19:59:44.689Z,76.06
2019-05-20T20:02:17.456Z,76.52
2019-05-20T20:04:41.543Z,76.83
2019-05-20T20:07:08.830Z,76.24
2019-05-20T20:09:36.168Z,76.36
2019-05-20T20:12:03.876Z,76.75
2019-05-20T20:14:32.259Z,76.81
2019-05-20T20:16:59.900Z,77.15
2019-05-20T20:19:27.243Z,77.40
2019-05-20T20:21:54.562Z,77.65
2019-05-20T20:24:22.406Z,77.55
2019-05-20T20:26:50.407Z,77.96
2019-05-20T20:29:18.023Z,78.16
2019-05-20T20:31:45.318Z,78.42
2019-05-20T20:34:12.530Z,78.66
2019-05-20T20:36:40.462Z,78.04
2019-05-20T20:39:09.011Z,78.05
2019-05-20T20:41:36.446Z,78.08
2019-05-20T20:44:04.062Z,78.42
2019-05-20T20:46:31.393Z,78.55
2019-05-20T20:48:58.627Z,78.42
2019-05-20T20:51:26.337Z,77.04
2019-05-20T20:53:53.722Z,76.50
2019-05-20T20:56:25.217Z,76.85
2019-05-20T20:58:50.493Z,77.35
2019-05-20T21:01:17.972Z,77.67
2019-05-20T21:03:45.537Z,78.19
2019-05-20T21:06:13.020Z,78.04
2019-05-20T21:08:41.506Z,77.81
2019-05-20T21:11:08.794Z,78.21
2019-05-20T21:13:36.097Z,78.58
2019-05-20T21:16:03.953Z,79.04
2019-05-20T21:18:31.489Z,78.70
2019-05-20T21:20:58.889Z,78.46
2019-05-20T21:23:26.185Z,77.77
2019-05-20T21:25:53.774Z,77.97
2019-05-20T21:28:21.238Z,77.77
2019-05-20T21:30:48.671Z,77.40
2019-05-20T21:33:18.016Z,77.37
2019-05-20T21:35:45.712Z,77.55
2019-05-20T21:38:13.017Z,78.17
2019-05-20T21:40:40.261Z,78.10
2019-05-20T21:43:08.153Z,78.06
2019-05-20T21:45:35.538Z,77.73
2019-05-20T21:48:03.934Z,78.07
2019-05-20T21:50:31.177Z,78.26
2019-05-20T21:52:58.474Z,78.23
2019-05-20T21:55:25.750Z,78.28
2019-05-20T21:57:53.023Z,78.22
2019-05-20T22:00:26.934Z,77.89
2019-05-20T22:02:55.148Z,77.72
2019-05-20T22:05:22.799Z,77.02
2019-05-20T22:07:50.522Z,77.18
2019-05-20T22:10:18.199Z,76.93
2019-05-20T22:12:45.551Z,76.97
2019-05-20T22:15:12.837Z,76.51
2019-05-20T22:17:40.017Z,76.57
2019-05-20T22:20:07.507Z,76.91
2019-05-20T22:22:40.878Z,77.13
2019-05-20T22:25:13.010Z,77.83
2019-05-20T22:27:40.316Z,76.87
2019-05-20T22:30:08.120Z,77.39
2019-05-20T22:32:35.650Z,77.98
2019-05-20T22:35:03.307Z,78.23
2019-05-20T22:37:30.945Z,78.27
2019-05-20T22:39:58.746Z,78.46
2019-05-20T22:42:26.290Z,79.35
2019-05-20T22:44:53.584Z,80.26
2019-05-20T22:47:20.940Z,79.98
2019-05-20T22:49:48.325Z,80.11
2019-05-20T22:52:15.688Z,80.52
2019-05-20T22:54:44.028Z,80.10
2019-05-20T22:57:11.457Z,79.95
2019-05-20T22:59:38.849Z,79.99
2019-05-20T23:02:06.129Z,79.56
2019-05-20T23:04:33.228Z,79.32
2019-05-20T23:07:00.509Z,79.50
2019-05-20T23:09:27.807Z,79.40
2019-05-20T23:11:55.072Z,79.60
2019-05-20T23:14:24.564Z,79.99
2019-05-20T23:16:51.979Z,80.57
2019-05-20T23:19:19.257Z,80.40
2019-05-20T23:21:46.511Z,80.77
2019-05-20T23:24:13.859Z,81.01
2019-05-20T23:26:41.888Z,80.89
2019-05-20T23:29:09.178Z,80.92
2019-05-20T23:31:36.444Z,80.88
2019-05-20T23:34:12.706Z,80.57
2019-05-20T23:36:33.179Z,80.56
2019-05-20T23:39:00.490Z,79.97
2019-05-20T23:41:27.713Z,79.68
2019-05-20T23:43:54.955Z,80.23
2019-05-20T23:46:22.223Z,80.39
2019-05-20T23:48:49.841Z,80.79
2019-05-20T23:51:17.132Z,81.35
2019-05-20T23:53:44.447Z,81.22
2019-05-20T23:56:12.174Z,81.40
2019-05-20T23:58:39.600Z,81.88
